Time;durP1;ratioP1;P1;durP2;ratioP2;P2;SDS_P1;SDS_P2;PMS_P1;PMS_P2;Temp;Humidity;BMP_temperature;BMP_pressure;BME280_temperature;BME280_humidity;BME280_pressure;Samples;Min_cycle;Max_cycle;Signal;HPM_P1;HPM_P2
2023/06/20 00:00:44;;;;;;;8.80;7.90;;;;;;;23.00;72.98;157282.94;5033947;28;20555;-82
2023/06/20 00:03:11;;;;;;;8.60;7.90;;;;;;;23.04;72.93;157292.03;5030022;28;20566;-82
2023/06/20 00:05:37;;;;;;;9.57;8.77;;;;;;;23.04;73.26;157292.03;5030568;28;20486;-82
2023/06/20 00:08:04;;;;;;;9.20;8.30;;;;;;;23.03;73.22;157290.72;5015652;28;20459;-82
2023/06/20 00:10:32;;;;;;;9.77;8.87;;;;;;;23.03;72.62;157289.47;5031071;28;20439;-82
2023/06/20 00:12:59;;;;;;;9.17;8.27;;;;;;;22.98;73.58;157277.66;5028364;28;20459;-82
2023/06/20 00:15:26;;;;;;;10.73;7.90;;;;;;;22.97;72.95;157275.09;5029320;28;20957;-82
2023/06/20 00:17:52;;;;;;;8.23;7.53;;;;;;;22.98;71.97;157277.66;5031085;28;20875;-82
2023/06/20 00:20:19;;;;;;;7.20;6.60;;;;;;;22.99;71.07;157280.28;5032878;28;20464;-82
2023/06/20 00:22:46;;;;;;;7.17;6.47;;;;;;;23.03;69.58;157290.72;5010506;28;20487;-82
2023/06/20 00:25:13;;;;;;;7.60;6.90;;;;;;;23.07;69.57;157298.56;5029762;28;20440;-82
2023/06/20 00:27:40;;;;;;;7.07;6.47;;;;;;;23.06;69.20;157296.00;5030667;28;20511;-82
2023/06/20 00:30:09;;;;;;;6.67;6.17;;;;;;;23.07;69.27;157299.88;5034388;28;20442;-82
2023/06/20 00:32:37;;;;;;;7.73;7.00;;;;;;;23.10;68.75;157306.41;5026003;28;20493;-82
2023/06/20 00:35:04;;;;;;;7.20;6.50;;;;;;;23.09;69.43;157305.09;5024250;28;20524;-82
2023/06/20 00:37:31;;;;;;;7.00;6.40;;;;;;;23.12;70.93;157311.63;5019514;28;20459;-82
2023/06/20 00:39:57;;;;;;;8.17;7.47;;;;;;;23.12;72.00;157311.63;4998244;28;20463;-82
2023/06/20 00:42:25;;;;;;;9.60;7.47;;;;;;;23.11;73.03;157309.06;5031431;28;20506;-82
2023/06/20 00:44:53;;;;;;;8.30;7.50;;;;;;;23.04;74.82;157292.03;5026993;28;20468;-82
2023/06/20 00:47:20;;;;;;;8.30;6.90;;;;;;;22.90;78.21;157256.75;5015212;28;20858;-82
2023/06/20 00:49:48;;;;;;;8.80;8.00;;;;;;;22.83;80.59;157237.16;5012728;28;20452;-81
2023/06/20 00:52:14;;;;;;;9.33;8.10;;;;;;;22.67;82.73;157196.66;5012345;28;20977;-81
2023/06/20 00:54:44;;;;;;;8.93;8.07;;;;;;;22.49;85.46;157149.59;5031679;28;20464;-81
2023/06/20 00:57:12;;;;;;;9.53;8.63;;;;;;;22.33;86.99;157107.78;5016932;28;20475;-80
2023/06/20 00:59:38;;;;;;;9.60;8.70;;;;;;;22.23;88.91;157081.69;5019739;28;20438;-80
2023/06/20 01:02:23;;;;;;;9.40;8.37;;;;;;;22.19;90.19;157071.22;5030145;28;20483;-80
2023/06/20 01:04:50;;;;;;;9.83;8.90;;;;;;;22.11;91.31;157050.31;5017257;28;20463;-81
2023/06/20 01:07:24;;;;;;;8.60;7.80;;;;;;;22.07;91.44;157041.22;5030958;28;20447;-81
2023/06/20 01:09:56;;;;;;;9.10;8.30;;;;;;;22.01;92.39;157025.53;5018686;28;20936;-81
2023/06/20 01:12:30;;;;;;;13.67;8.87;;;;;;;21.98;93.22;157016.38;5028330;28;20939;-81
2023/06/20 01:15:03;;;;;;;9.03;8.13;;;;;;;21.94;93.78;157005.94;5000540;28;20448;-81
2023/06/20 01:17:38;;;;;;;10.10;8.00;;;;;;;21.84;94.42;156982.38;5029143;28;20452;-81
2023/06/20 01:20:08;;;;;;;9.17;8.00;;;;;;;21.75;95.80;156958.91;5029516;28;20447;-80
2023/06/20 01:22:41;;;;;;;8.43;7.63;;;;;;;21.65;96.39;156931.47;5032652;28;20957;-81
2023/06/20 01:25:11;;;;;;;8.30;7.60;;;;;;;21.61;96.84;156922.31;5014055;28;20436;-80
2023/06/20 01:27:43;;;;;;;8.80;8.00;;;;;;;21.51;97.22;156896.22;5011205;28;20471;-80
2023/06/20 01:30:13;;;;;;;11.03;7.87;;;;;;;21.41;98.07;156870.13;5027239;28;20448;-80
2023/06/20 01:32:44;;;;;;;8.60;7.73;;;;;;;21.31;99.35;156844.03;5024658;28;20451;-80
2023/06/20 01:35:13;;;;;;;8.60;7.27;;;;;;;21.23;98.98;156823.16;5012494;28;20997;-80
2023/06/20 01:37:42;;;;;;;8.10;7.30;;;;;;;21.21;100.00;156817.91;5028430;28;20479;-80
2023/06/20 01:40:10;;;;;;;9.27;7.07;;;;;;;21.17;100.00;156807.47;5018937;28;20498;-80
2023/06/20 01:42:38;;;;;;;7.80;7.07;;;;;;;21.12;100.00;156795.75;5018035;28;20479;-80
2023/06/20 01:45:07;;;;;;;7.53;6.73;;;;;;;21.04;100.00;156773.50;5031756;28;20852;-80
2023/06/20 01:47:36;;;;;;;7.43;6.43;;;;;;;20.97;100.00;156755.25;5010695;28;20432;-80
2023/06/20 01:50:05;;;;;;;6.80;6.10;;;;;;;20.94;100.00;156747.41;5027999;28;20440;-80
2023/06/20 01:52:33;;;;;;;7.80;6.50;;;;;;;20.94;100.00;156747.41;5028845;28;20456;-81
2023/06/20 01:55:04;;;;;;;8.50;6.77;;;;;;;20.89;100.00;156734.38;5028860;28;20527;-80
2023/06/20 01:57:32;;;;;;;7.40;6.70;;;;;;;20.77;100.00;156704.34;5017193;28;20465;-80
2023/06/20 01:59:59;;;;;;;6.73;6.13;;;;;;;20.73;100.00;156692.63;5011367;28;20448;-80
2023/06/20 02:02:26;;;;;;;7.93;6.60;;;;;;;20.77;100.00;156703.03;5007873;28;20480;-80
2023/06/20 02:04:58;;;;;;;7.30;6.63;;;;;;;20.76;100.00;156700.44;5029211;28;20444;-80
2023/06/20 02:07:26;;;;;;;7.40;6.70;;;;;;;20.69;100.00;156682.16;5028792;28;20462;-80
2023/06/20 02:09:53;;;;;;;7.30;6.60;;;;;;;20.71;100.00;156688.66;5034647;28;20850;-80
2023/06/20 02:12:21;;;;;;;7.67;6.97;;;;;;;20.69;100.00;156683.47;4990017;28;20459;-80
2023/06/20 02:14:49;;;;;;;8.50;6.40;;;;;;;20.65;100.00;156674.31;5019801;28;20456;-80
2023/06/20 02:17:16;;;;;;;6.50;5.80;;;;;;;20.60;100.00;156659.94;5023734;28;20828;-80
2023/06/20 02:19:43;;;;;;;7.10;6.40;;;;;;;20.57;100.00;156653.44;5027194;28;20974;-80
2023/06/20 02:22:12;;;;;;;6.70;6.10;;;;;;;20.54;100.00;156644.34;5026009;28;20484;-80
2023/06/20 02:24:39;;;;;;;6.90;6.20;;;;;;;20.53;100.00;156643.03;5013002;28;20464;-80
2023/06/20 02:27:06;;;;;;;7.10;6.40;;;;;;;20.53;100.00;156643.03;5009556;28;20487;-80
2023/06/20 02:29:37;;;;;;;7.00;6.40;;;;;;;20.46;100.00;156623.47;5027249;28;20440;-79
2023/06/20 02:32:05;;;;;;;7.50;6.10;;;;;;;20.47;100.00;156626.03;5021533;28;21011;-80
2023/06/20 02:34:34;;;;;;;6.50;5.87;;;;;;;20.48;100.00;156628.66;5012243;28;20452;-79
2023/06/20 02:37:01;;;;;;;7.87;5.73;;;;;;;20.46;100.00;156624.78;5024363;28;20460;-80
2023/06/20 02:39:29;;;;;;;5.90;5.30;;;;;;;20.45;100.00;156622.16;5028612;28;20450;-80
2023/06/20 02:41:57;;;;;;;6.93;6.23;;;;;;;20.41;100.00;156611.69;5010256;28;20517;-79
2023/06/20 02:44:24;;;;;;;6.73;6.07;;;;;;;20.37;100.00;156601.28;5028054;28;20467;-80
2023/06/20 02:46:57;;;;;;;6.13;5.50;;;;;;;20.33;100.00;156590.81;5026871;28;20443;-80
2023/06/20 02:49:29;;;;;;;6.83;5.17;;;;;;;20.32;100.00;156588.25;5023741;28;20464;-80
2023/06/20 02:52:03;;;;;;;6.77;5.67;;;;;;;20.31;100.00;156585.63;5020091;28;20452;-80
2023/06/20 02:54:36;;;;;;;6.90;6.20;;;;;;;20.29;100.00;156580.41;5012086;28;20459;-80
2023/06/20 02:57:05;;;;;;;6.47;5.67;;;;;;;20.27;100.00;156573.88;5030075;28;20454;-80
2023/06/20 02:59:34;;;;;;;6.20;5.60;;;;;;;20.22;100.00;156560.81;5036777;28;20447;-80
2023/06/20 03:02:04;;;;;;;7.23;6.23;;;;;;;20.14;100.00;156541.25;5028035;28;20460;-80
2023/06/20 03:04:32;;;;;;;6.53;5.93;;;;;;;20.12;100.00;156536.00;5012397;28;21066;-80
2023/06/20 03:07:01;;;;;;;6.53;5.83;;;;;;;20.16;100.00;156546.44;5008651;28;20462;-80
2023/06/20 03:09:30;;;;;;;5.67;4.80;;;;;;;20.14;100.00;156541.25;5010005;28;20479;-80
2023/06/20 03:11:57;;;;;;;5.60;5.10;;;;;;;20.19;100.00;156552.97;5007314;28;20491;-80
2023/06/20 03:14:24;;;;;;;6.00;5.40;;;;;;;20.18;100.00;156551.66;5027105;28;20498;-80
2023/06/20 03:16:51;;;;;;;11.87;5.50;;;;;;;20.13;100.00;156538.63;5009849;28;20452;-80
2023/06/20 03:19:28;;;;;;;6.57;5.97;;;;;;;20.15;100.00;156543.81;5009194;28;20975;-80
2023/06/20 03:21:55;;;;;;;7.03;5.73;;;;;;;20.12;100.00;156534.72;5010486;28;20847;-80
2023/06/20 03:24:22;;;;;;;5.67;5.17;;;;;;;20.08;100.00;156525.59;5020494;28;20498;-81
2023/06/20 03:26:49;;;;;;;6.67;6.00;;;;;;;20.10;100.00;156530.78;5001089;28;20811;-80
2023/06/20 03:29:16;;;;;;;6.97;5.67;;;;;;;20.10;100.00;156530.78;5009385;28;21015;-80
2023/06/20 03:31:43;;;;;;;6.97;6.17;;;;;;;20.08;100.00;156525.59;5018735;28;20518;-80
2023/06/20 03:34:10;;;;;;;11.20;6.37;;;;;;;20.09;100.00;156528.22;5017761;28;20447;-80
2023/06/20 03:36:38;;;;;;;7.63;6.83;;;;;;;20.06;100.00;156520.38;5010094;28;20444;-80
2023/06/20 03:39:05;;;;;;;7.57;6.80;;;;;;;19.96;100.00;156494.31;5030243;28;20456;-79
2023/06/20 03:41:32;;;;;;;5.97;5.40;;;;;;;19.91;100.00;156481.22;5027398;28;20803;-79
2023/06/20 03:44:02;;;;;;;6.50;5.90;;;;;;;19.91;100.00;156482.53;5026404;28;20506;-80
2023/06/20 03:46:28;;;;;;;6.00;5.40;;;;;;;19.87;100.00;156470.81;5025335;28;20484;-80
2023/06/20 03:48:55;;;;;;;5.83;5.33;;;;;;;19.88;100.00;156473.44;4998786;28;20481;-80
2023/06/20 03:51:21;;;;;;;6.00;5.40;;;;;;;19.88;100.00;156473.44;5009782;28;20450;-80
2023/06/20 03:53:49;;;;;;;6.27;5.67;;;;;;;19.90;100.00;156479.97;5028287;28;20436;-80
2023/06/20 03:56:16;;;;;;;7.10;5.70;;;;;;;19.89;100.00;156476.03;5028080;28;20812;-79
2023/06/20 03:58:42;;;;;;;5.57;5.00;;;;;;;19.85;100.00;156466.94;5013584;28;20452;-79
2023/06/20 04:01:09;;;;;;;5.77;5.17;;;;;;;19.80;100.00;156452.59;5023258;28;20471;-79
2023/06/20 04:03:36;;;;;;;5.70;5.13;;;;;;;19.78;100.00;156447.31;5007296;28;20486;-80
2023/06/20 04:06:04;;;;;;;5.47;4.97;;;;;;;19.73;100.00;156434.28;5009596;28;20464;-80
2023/06/20 04:08:31;;;;;;;5.93;5.30;;;;;;;19.70;100.00;156426.47;5008965;28;20570;-80
2023/06/20 04:11:00;;;;;;;6.90;6.20;;;;;;;19.72;100.00;156431.72;5026100;28;20455;-80
2023/06/20 04:13:26;;;;;;;8.40;5.70;;;;;;;19.81;100.00;156456.47;5028873;28;20469;-80
2023/06/20 04:15:53;;;;;;;5.47;4.87;;;;;;;19.94;100.00;156489.06;5026431;28;20466;-81
2023/06/20 04:18:19;;;;;;;6.60;6.00;;;;;;;20.10;100.00;156529.47;5013221;28;20459;-81
2023/06/20 04:20:46;;;;;;;5.70;5.20;;;;;;;20.20;100.00;156556.84;5025958;28;20488;-81
2023/06/20 04:23:12;;;;;;;5.77;5.27;;;;;;;20.36;100.00;156598.66;5011494;28;20545;-81
2023/06/20 04:25:39;;;;;;;6.13;5.53;;;;;;;20.46;100.00;156623.47;5014298;28;20440;-81
2023/06/20 04:28:07;;;;;;;6.30;5.70;;;;;;;20.59;100.00;156658.69;5015420;28;20467;-81
2023/06/20 04:30:42;;;;;;;6.57;5.40;;;;;;;20.72;100.00;156689.97;4996318;28;20451;-81
2023/06/20 04:33:09;;;;;;;6.20;5.10;;;;;;;20.82;100.00;156716.06;4995669;28;20546;-81
2023/06/20 04:35:35;;;;;;;6.30;5.70;;;;;;;20.94;100.00;156747.41;5007352;28;21036;-81
2023/06/20 04:38:04;;;;;;;5.97;5.10;;;;;;;21.07;100.00;156782.69;4996117;28;20834;-82
2023/06/20 04:40:37;;;;;;;5.93;5.43;;;;;;;21.17;100.00;156807.47;5027527;28;20457;-82
2023/06/20 04:43:03;;;;;;;6.10;5.60;;;;;;;21.27;100.00;156832.25;5046769;28;20460;-81
2023/06/20 04:45:31;;;;;;;5.17;4.77;;;;;;;21.39;99.14;156863.59;5029384;28;20946;-82
2023/06/20 04:47:58;;;;;;;5.10;4.60;;;;;;;21.52;98.77;156898.84;5029194;28;20456;-82
2023/06/20 04:50:26;;;;;;;6.30;4.67;;;;;;;21.63;97.86;156926.28;5012679;28;20463;-82
2023/06/20 04:52:53;;;;;;;5.63;5.10;;;;;;;21.68;97.32;156940.59;5027742;28;20436;-82
2023/06/20 04:55:21;;;;;;;6.50;5.67;;;;;;;21.72;96.82;156949.75;5011874;28;20441;-82
2023/06/20 04:57:48;;;;;;;5.00;4.60;;;;;;;21.79;96.28;156968.00;5010129;28;20468;-83
2023/06/20 05:00:16;;;;;;;5.87;5.33;;;;;;;21.88;95.62;156991.56;5010503;28;20510;-82
2023/06/20 05:02:45;;;;;;;4.87;4.37;;;;;;;21.97;95.81;157015.09;5025350;28;20470;-82
2023/06/20 05:05:11;;;;;;;5.20;4.70;;;;;;;22.06;94.99;157037.25;5015283;28;20482;-82
2023/06/20 05:07:41;;;;;;;6.90;4.87;;;;;;;22.17;94.06;157066.00;5005858;28;20475;-83
2023/06/20 05:10:08;;;;;;;4.80;4.30;;;;;;;22.27;92.77;157093.44;4999681;28;20452;-83
2023/06/20 05:12:34;;;;;;;5.83;5.33;;;;;;;22.33;92.36;157107.78;5025259;28;20994;-83
2023/06/20 05:15:01;;;;;;;5.77;5.17;;;;;;;22.45;92.33;157139.16;5023443;28;20454;-83
2023/06/20 05:17:28;;;;;;;4.77;4.27;;;;;;;22.49;91.51;157148.28;5026189;28;21171;-84
2023/06/20 05:19:56;;;;;;;5.17;4.67;;;;;;;22.57;92.06;157169.19;5026026;28;20811;-84
2023/06/20 05:22:22;;;;;;;4.87;4.40;;;;;;;22.66;92.59;157194.09;5025770;28;20994;-84
2023/06/20 05:24:49;;;;;;;5.40;4.90;;;;;;;22.76;91.69;157220.22;5025910;28;20471;-84
2023/06/20 05:27:15;;;;;;;5.97;4.67;;;;;;;22.81;91.42;157233.25;5026695;28;20447;-84
2023/06/20 05:29:42;;;;;;;6.67;4.33;;;;;;;22.87;90.85;157248.97;5025714;28;20456;-84
2023/06/20 05:32:09;;;;;;;6.30;4.63;;;;;;;22.98;90.00;157277.66;5024899;28;20468;-82
2023/06/20 05:34:35;;;;;;;6.13;5.10;;;;;;;23.14;88.78;157316.91;5020022;28;20539;-82
2023/06/20 05:37:03;;;;;;;4.67;4.27;;;;;;;23.25;87.87;157346.94;5004908;28;20899;-82
2023/06/20 05:39:30;;;;;;;4.83;4.33;;;;;;;23.41;87.21;157387.50;5005993;28;20881;-82
2023/06/20 05:41:57;;;;;;;4.73;4.33;;;;;;;23.52;86.90;157416.25;5008039;28;20982;-82
2023/06/20 05:44:23;;;;;;;5.70;4.27;;;;;;;23.60;86.48;157437.16;5023677;28;21125;-83
2023/06/20 05:46:50;;;;;;;9.07;4.57;;;;;;;23.74;85.10;157473.78;5023824;28;20456;-83
2023/06/20 05:49:16;;;;;;;5.03;4.53;;;;;;;23.86;84.61;157505.16;5007291;28;20455;-83
2023/06/20 05:51:44;;;;;;;4.90;4.30;;;;;;;23.99;83.00;157539.13;5020961;28;20463;-83
2023/06/20 05:54:13;;;;;;;4.90;4.40;;;;;;;24.15;81.84;157579.72;5020647;28;20977;-83
2023/06/20 05:56:40;;;;;;;5.10;4.70;;;;;;;24.27;82.03;157611.13;5024990;28;20514;-83
2023/06/20 05:59:07;;;;;;;6.17;4.73;;;;;;;24.40;81.48;157643.81;5028609;28;20444;-84
2023/06/20 06:01:33;;;;;;;5.07;4.67;;;;;;;24.47;81.44;157662.13;5014198;28;20483;-83
2023/06/20 06:04:01;;;;;;;6.20;4.40;;;;;;;24.63;81.52;157703.97;5023730;28;20529;-84
2023/06/20 06:06:28;;;;;;;5.47;4.97;;;;;;;24.79;80.40;157747.22;5025384;28;20452;-85
2023/06/20 06:08:54;;;;;;;6.20;4.73;;;;;;;25.02;79.54;157804.78;5025476;28;20954;-84
2023/06/20 06:11:22;;;;;;;5.20;4.70;;;;;;;25.14;77.38;157837.50;5025868;28;20464;-84
2023/06/20 06:13:49;;;;;;;8.03;5.23;;;;;;;25.22;77.77;157857.13;5024780;28;20529;-84
2023/06/20 06:16:17;;;;;;;5.57;5.07;;;;;;;25.33;76.37;157885.91;5015970;28;20619;-84
2023/06/20 06:18:44;;;;;;;5.50;5.00;;;;;;;25.42;75.35;157910.75;5024460;28;21108;-85
2023/06/20 06:21:11;;;;;;;5.13;4.60;;;;;;;25.53;74.14;157936.97;5021518;28;20610;-85
2023/06/20 06:23:37;;;;;;;5.57;5.07;;;;;;;25.60;74.22;157955.34;5020500;28;20457;-85
2023/06/20 06:26:04;;;;;;;5.13;4.73;;;;;;;25.68;74.32;157977.56;5021053;28;20459;-85
2023/06/20 06:28:32;;;;;;;5.60;5.00;;;;;;;25.74;73.13;157991.97;4988868;28;20520;-85
2023/06/20 06:31:00;;;;;;;6.00;5.40;;;;;;;25.83;73.86;158015.53;5004159;28;21010;-85
2023/06/20 06:33:27;;;;;;;4.77;4.37;;;;;;;25.88;73.29;158028.63;5021055;28;20821;-85
2023/06/20 06:35:55;;;;;;;5.23;4.73;;;;;;;26.05;72.21;158071.84;5005378;28;20452;-85
2023/06/20 06:38:21;;;;;;;6.40;5.30;;;;;;;26.13;70.97;158094.16;5020896;28;20456;-85
2023/06/20 06:40:48;;;;;;;6.03;5.20;;;;;;;26.29;71.94;158136.03;5021356;28;20464;-86
2023/06/20 06:43:15;;;;;;;5.27;4.83;;;;;;;26.38;72.67;158158.31;5020364;28;20464;-85
2023/06/20 06:45:43;;;;;;;6.27;5.77;;;;;;;26.47;71.61;158181.91;5005474;28;20474;-85
2023/06/20 06:48:09;;;;;;;6.90;5.43;;;;;;;26.55;72.48;158204.19;5006224;28;20459;-85
2023/06/20 06:50:36;;;;;;;5.40;4.90;;;;;;;26.78;71.73;158261.81;5005525;28;20970;-85
2023/06/20 06:53:03;;;;;;;5.27;4.77;;;;;;;26.90;70.79;158293.28;5022563;28;20467;-85
2023/06/20 06:55:29;;;;;;;6.77;5.87;;;;;;;26.95;69.65;158306.38;5022403;28;20562;-85
2023/06/20 06:57:57;;;;;;;6.80;5.30;;;;;;;26.96;70.38;158310.28;5000564;28;20467;-85
2023/06/20 07:00:24;;;;;;;6.20;5.40;;;;;;;27.03;69.48;158328.63;5004868;28;20453;-85
2023/06/20 07:02:52;;;;;;;6.13;5.20;;;;;;;27.18;68.96;158367.97;5022743;28;20475;-82
2023/06/20 07:05:19;;;;;;;6.97;6.13;;;;;;;27.24;69.47;158381.06;5020090;28;20465;-84
2023/06/20 07:07:46;;;;;;;5.37;4.87;;;;;;;27.20;67.32;158371.88;5019783;28;20464;-85
2023/06/20 07:10:12;;;;;;;5.97;5.43;;;;;;;27.47;68.38;158442.69;5005548;28;20594;-85
2023/06/20 07:12:39;;;;;;;5.97;5.17;;;;;;;27.68;68.33;158496.41;5002682;28;20548;-85
2023/06/20 07:15:06;;;;;;;6.27;5.67;;;;;;;27.71;67.63;158505.59;5004715;28;20567;-85
2023/06/20 07:17:33;;;;;;;5.90;5.40;;;;;;;27.87;67.73;158546.25;4997140;28;20492;-85
2023/06/20 07:20:06;;;;;;;6.00;5.40;;;;;;;28.06;66.43;158596.13;5021763;28;20453;-85
2023/06/20 07:22:35;;;;;;;8.53;6.00;;;;;;;28.13;67.07;158613.13;5018313;28;21396;-85
2023/06/20 07:25:02;;;;;;;6.47;5.77;;;;;;;28.29;63.39;158655.09;5020706;28;20467;-85
2023/06/20 07:27:28;;;;;;;6.33;5.43;;;;;;;28.36;60.53;158674.75;5006304;28;20464;-85
2023/06/20 07:29:55;;;;;;;6.60;5.70;;;;;;;28.35;61.74;158670.84;5021776;28;20455;-84
2023/06/20 07:32:22;;;;;;;6.80;6.20;;;;;;;28.37;60.95;158676.06;5022590;28;21082;-84
2023/06/20 07:34:49;;;;;;;6.03;5.53;;;;;;;28.23;58.69;158640.66;5024157;28;20501;-84
2023/06/20 07:37:17;;;;;;;6.53;5.40;;;;;;;28.28;60.36;158652.44;5022767;28;20470;-82
2023/06/20 07:39:46;;;;;;;5.60;5.10;;;;;;;28.39;59.44;158681.31;5008277;28;20471;-85
2023/06/20 07:42:13;;;;;;;6.03;5.43;;;;;;;28.54;62.42;158720.63;5025107;28;20456;-85
2023/06/20 07:44:40;;;;;;;6.10;5.30;;;;;;;28.58;59.58;158731.16;5042299;28;20482;-85
2023/06/20 07:47:09;;;;;;;6.23;5.63;;;;;;;28.71;61.24;158763.97;5042397;28;20498;-85
2023/06/20 07:49:36;;;;;;;7.63;5.73;;;;;;;28.48;58.91;158704.94;5042534;28;20443;-84
2023/06/20 07:52:03;;;;;;;6.57;5.90;;;;;;;28.35;59.26;158670.84;5028057;28;20470;-84
2023/06/20 07:54:31;;;;;;;5.93;5.20;;;;;;;28.44;62.46;158694.41;5020998;28;20444;-84
2023/06/20 07:56:58;;;;;;;6.70;6.00;;;;;;;28.53;63.60;158718.03;5029255;28;20455;-85
2023/06/20 07:59:24;;;;;;;6.53;5.93;;;;;;;28.67;62.10;158754.81;5024780;28;20458;-85
2023/06/20 08:01:51;;;;;;;6.47;5.80;;;;;;;28.86;62.06;158804.63;5004251;28;20507;-82
2023/06/20 08:04:17;;;;;;;7.03;6.13;;;;;;;28.92;62.47;158820.38;5027225;28;20819;-82
2023/06/20 08:06:44;;;;;;;5.67;5.17;;;;;;;28.92;62.67;158819.06;5028040;28;20463;-83
2023/06/20 08:09:10;;;;;;;6.43;5.57;;;;;;;29.04;60.08;158849.25;5021193;28;20886;-83
2023/06/20 08:11:38;;;;;;;6.50;5.90;;;;;;;29.06;59.92;158854.47;5011547;28;20449;-83
2023/06/20 08:14:05;;;;;;;6.30;5.70;;;;;;;29.15;60.25;158878.13;5028137;28;20451;-83
2023/06/20 08:16:31;;;;;;;7.10;6.40;;;;;;;29.28;61.57;158912.28;5011404;28;20455;-83
2023/06/20 08:18:58;;;;;;;6.50;5.73;;;;;;;29.31;58.62;158921.41;5024764;28;20573;-83
2023/06/20 08:21:24;;;;;;;7.00;6.40;;;;;;;29.56;57.94;158985.72;5023074;28;20986;-83
2023/06/20 08:23:51;;;;;;;6.57;5.97;;;;;;;29.48;56.11;158964.72;5020765;28;21117;-83
2023/06/20 08:26:17;;;;;;;9.43;6.20;;;;;;;29.28;55.04;158913.53;5028219;28;20475;-83
2023/06/20 08:28:45;;;;;;;7.63;6.63;;;;;;;29.22;55.38;158897.84;5026524;28;20440;-83
2023/06/20 08:31:12;;;;;;;7.80;5.70;;;;;;;29.28;56.53;158913.53;5019486;28;20447;-83
2023/06/20 08:33:38;;;;;;;6.90;6.40;;;;;;;29.51;58.04;158972.59;5023932;28;20500;-84
2023/06/20 08:36:05;;;;;;;7.00;6.27;;;;;;;29.78;55.96;159042.16;5028156;28;20448;-84
2023/06/20 08:38:32;;;;;;;7.27;6.57;;;;;;;29.98;57.97;159096.00;5011386;28;20460;-83
2023/06/20 08:40:58;;;;;;;8.00;6.10;;;;;;;30.16;56.93;159141.94;5028351;28;20570;-84
2023/06/20 08:43:28;;;;;;;7.00;6.30;;;;;;;30.39;54.24;159202.41;5008697;28;20457;-83
2023/06/20 08:45:56;;;;;;;7.20;6.60;;;;;;;30.59;53.47;159253.59;5028092;28;20482;-83
2023/06/20 08:48:23;;;;;;;7.03;6.43;;;;;;;30.71;54.36;159285.13;5026722;28;20457;-83
2023/06/20 08:50:51;;;;;;;7.83;7.13;;;;;;;30.69;54.69;159279.84;5026243;28;20455;-83
2023/06/20 08:53:18;;;;;;;6.63;6.03;;;;;;;30.71;51.28;159285.13;5024318;28;20867;-83
2023/06/20 08:55:45;;;;;;;8.83;6.70;;;;;;;30.71;53.48;159286.41;5008756;28;20458;-84
2023/06/20 08:58:12;;;;;;;6.80;6.00;;;;;;;30.74;51.16;159292.97;5024746;28;20459;-83
2023/06/20 09:00:39;;;;;;;7.90;6.40;;;;;;;30.84;52.23;159319.25;5025185;28;21096;-84
2023/06/20 09:03:07;;;;;;;9.27;7.37;;;;;;;30.94;50.97;159344.25;5022220;28;21020;-84
2023/06/20 09:05:41;;;;;;;9.00;6.50;;;;;;;31.10;54.50;159387.59;5026225;28;20475;-84
2023/06/20 09:08:07;;;;;;;7.70;7.00;;;;;;;31.23;52.73;159421.75;5027177;28;20464;-84
2023/06/20 09:10:36;;;;;;;6.83;6.00;;;;;;;31.41;51.27;159466.38;5027985;28;20462;-84
2023/06/20 09:13:06;;;;;;;8.67;6.40;;;;;;;31.37;52.80;159455.91;5026165;28;20832;-84
2023/06/20 09:15:33;;;;;;;7.93;6.60;;;;;;;31.30;53.96;159438.78;5024623;28;20826;-84
2023/06/20 09:18:00;;;;;;;8.80;7.53;;;;;;;31.42;49.81;159469.03;5025866;28;20807;-84
2023/06/20 09:20:29;;;;;;;7.07;6.47;;;;;;;31.55;51.78;159503.22;5025254;28;20968;-84
2023/06/20 09:22:56;;;;;;;7.70;7.00;;;;;;;31.61;50.59;159519.00;5026326;28;20824;-82
2023/06/20 09:25:24;;;;;;;8.20;6.57;;;;;;;31.67;49.50;159534.75;5002915;28;20471;-83
2023/06/20 09:27:51;;;;;;;10.17;8.20;;;;;;;31.74;51.48;159553.16;5032038;28;20464;-83
2023/06/20 09:30:18;;;;;;;7.20;6.60;;;;;;;31.78;50.65;159563.66;5028270;28;20454;-83
2023/06/20 09:32:44;;;;;;;7.90;7.10;;;;;;;31.72;48.69;159549.19;5026266;28;20475;-83
2023/06/20 09:35:12;;;;;;;7.77;6.57;;;;;;;31.77;48.54;159561.06;5026383;28;20455;-83
2023/06/20 09:37:41;;;;;;;6.53;5.90;;;;;;;31.85;50.50;159583.34;5018268;28;20474;-83
2023/06/20 09:40:13;;;;;;;7.60;6.90;;;;;;;31.97;51.84;159612.28;5026569;28;20901;-83
2023/06/20 09:42:40;;;;;;;8.13;7.33;;;;;;;32.04;50.32;159630.75;5026788;28;20452;-84
2023/06/20 09:45:07;;;;;;;8.67;6.83;;;;;;;32.13;51.71;159655.69;5026951;28;20483;-84
2023/06/20 09:47:35;;;;;;;8.47;7.00;;;;;;;32.23;50.28;159681.97;5027192;28;20462;-84
2023/06/20 09:50:05;;;;;;;8.20;6.77;;;;;;;32.31;49.33;159703.00;5025962;28;20455;-84
2023/06/20 09:52:34;;;;;;;6.83;6.23;;;;;;;32.45;47.37;159739.81;5026427;28;20807;-84
2023/06/20 09:55:08;;;;;;;8.57;7.17;;;;;;;32.54;46.54;159760.91;5025582;28;20504;-84
2023/06/20 09:57:39;;;;;;;10.20;6.30;;;;;;;32.19;43.21;159670.16;5007808;28;20451;-84
2023/06/20 10:00:12;;;;;;;8.27;6.70;;;;;;;32.18;48.00;159667.50;5026956;28;20806;-84
2023/06/20 10:02:42;;;;;;;7.60;6.90;;;;;;;32.10;47.43;159647.81;5026165;28;20559;-84
2023/06/20 10:05:09;;;;;;;8.37;7.37;;;;;;;32.11;47.21;159650.44;5026892;28;20470;-84
2023/06/20 10:07:37;;;;;;;6.97;6.27;;;;;;;32.19;45.21;159671.47;5026606;28;20460;-84
2023/06/20 10:10:06;;;;;;;7.30;6.70;;;;;;;32.15;43.69;159659.63;5008410;28;20447;-84
2023/06/20 10:12:33;;;;;;;6.90;6.40;;;;;;;32.18;47.09;159668.84;5026061;28;20455;-84
2023/06/20 10:15:00;;;;;;;11.10;6.93;;;;;;;32.26;45.11;159689.88;5026345;28;20455;-85
2023/06/20 10:17:31;;;;;;;8.00;6.50;;;;;;;32.34;47.05;159709.56;5026371;28;20582;-84
2023/06/20 10:19:58;;;;;;;10.07;7.30;;;;;;;32.42;48.13;159731.94;5023807;28;20483;-84
2023/06/20 10:22:33;;;;;;;7.67;6.90;;;;;;;32.49;49.30;159750.31;5024917;28;20570;-84
2023/06/20 10:25:11;;;;;;;7.20;6.50;;;;;;;32.37;41.55;159718.78;5025088;28;20490;-84
2023/06/20 10:27:39;;;;;;;7.43;6.83;;;;;;;32.30;41.45;159700.34;5022221;28;20452;-84
2023/06/20 10:30:07;;;;;;;6.57;6.07;;;;;;;32.42;48.98;159731.94;5024581;28;20547;-84
2023/06/20 10:32:33;;;;;;;6.80;6.20;;;;;;;32.49;43.05;159750.31;5007329;28;20462;-84
2023/06/20 10:35:07;;;;;;;6.63;6.03;;;;;;;32.59;43.22;159775.38;5007212;28;20454;-84
2023/06/20 10:37:39;;;;;;;6.33;5.73;;;;;;;32.56;41.38;159767.47;5024649;28;20455;-84
2023/06/20 10:40:09;;;;;;;7.93;6.30;;;;;;;32.42;38.14;159730.59;5022604;28;20459;-84
2023/06/20 10:42:38;;;;;;;5.87;5.27;;;;;;;32.41;37.23;159729.28;5021103;28;20455;-83
2023/06/20 10:45:25;;;;;;;6.60;6.03;;;;;;;32.27;38.21;159692.50;5025019;28;20471;-83
2023/06/20 10:47:52;;;;;;;7.40;6.70;;;;;;;32.05;38.24;159634.69;5026090;28;20478;-83
2023/06/20 10:50:20;;;;;;;6.97;6.27;;;;;;;31.92;39.48;159600.47;5024222;28;20506;-83
2023/06/20 10:52:47;;;;;;;7.23;6.40;;;;;;;31.93;39.20;159604.38;5023822;28;21303;-83
2023/06/20 10:55:15;;;;;;;7.57;6.87;;;;;;;32.05;41.97;159634.69;5025943;28;20799;-83
2023/06/20 10:57:46;;;;;;;7.00;6.37;;;;;;;32.20;43.53;159674.09;5024690;28;20464;-83
2023/06/20 11:00:17;;;;;;;7.27;6.57;;;;;;;32.30;38.54;159700.34;5007745;28;21060;-83
2023/06/20 11:02:44;;;;;;;7.30;6.70;;;;;;;32.24;39.61;159683.28;5008208;28;20455;-83
2023/06/20 11:05:11;;;;;;;7.33;6.73;;;;;;;32.25;38.71;159687.22;5024837;28;20506;-83
2023/06/20 11:07:58;;;;;;;7.93;6.53;;;;;;;32.25;40.95;159687.22;5024754;28;20533;-83
2023/06/20 11:10:30;;;;;;;8.13;6.50;;;;;;;32.22;37.72;159679.31;5012311;28;20444;-83
2023/06/20 11:12:58;;;;;;;7.47;6.87;;;;;;;32.24;39.96;159684.63;5024917;28;20455;-83
2023/06/20 11:15:27;;;;;;;7.63;7.03;;;;;;;32.10;38.06;159647.81;5023480;28;20543;-83
2023/06/20 11:17:54;;;;;;;7.40;6.70;;;;;;;32.00;38.83;159620.22;5024818;28;20547;-83
2023/06/20 11:20:24;;;;;;;6.77;5.80;;;;;;;31.94;37.85;159605.69;5022818;28;20483;-83
2023/06/20 11:22:53;;;;;;;6.97;6.37;;;;;;;31.99;37.35;159618.84;5025004;28;20554;-83
2023/06/20 11:25:27;;;;;;;6.73;6.23;;;;;;;32.20;37.42;159672.75;5024207;28;20447;-83